sensor_id;sensor_type;location;lat;lon;timestamp;P1;durP1;ratioP1;P2;durP2;ratioP2
57395;SDS011;43222;52.912;6.940;2023-11-21T00:01:57;42.65;;;21.08;;
57395;SDS011;43222;52.912;6.940;2023-11-21T00:04:23;57.25;;;22.15;;
57395;SDS011;43222;52.912;6.940;2023-11-21T00:06:49;44.67;;;20.38;;
57395;SDS011;43222;52.912;6.940;2023-11-21T00:09:15;56.22;;;22.50;;
57395;SDS011;43222;52.912;6.940;2023-11-21T00:11:42;53.13;;;22.08;;
57395;SDS011;43222;52.912;6.940;2023-11-21T00:14:09;49.38;;;21.73;;
57395;SDS011;43222;52.912;6.940;2023-11-21T00:16:35;50.00;;;22.80;;
57395;SDS011;43222;52.912;6.940;2023-11-21T00:19:01;44.63;;;22.42;;
57395;SDS011;43222;52.912;6.940;2023-11-21T00:21:27;44.90;;;22.30;;
57395;SDS011;43222;52.912;6.940;2023-11-21T00:23:53;52.80;;;22.20;;
57395;SDS011;43222;52.912;6.940;2023-11-21T00:26:19;43.25;;;21.73;;
57395;SDS011;43222;52.912;6.940;2023-11-21T00:28:45;49.83;;;20.80;;
57395;SDS011;43222;52.912;6.940;2023-11-21T00:31:11;58.38;;;23.50;;
57395;SDS011;43222;52.912;6.940;2023-11-21T00:33:38;55.05;;;22.73;;
57395;SDS011;43222;52.912;6.940;2023-11-21T00:36:04;47.53;;;22.05;;
57395;SDS011;43222;52.912;6.940;2023-11-21T00:38:37;47.33;;;21.90;;
57395;SDS011;43222;52.912;6.940;2023-11-21T00:41:06;47.60;;;22.15;;
57395;SDS011;43222;52.912;6.940;2023-11-21T00:43:32;50.70;;;22.85;;
57395;SDS011;43222;52.912;6.940;2023-11-21T00:45:58;48.05;;;22.58;;
57395;SDS011;43222;52.912;6.940;2023-11-21T00:48:25;52.28;;;23.10;;
57395;SDS011;43222;52.912;6.940;2023-11-21T00:50:51;48.75;;;22.75;;
57395;SDS011;43222;52.912;6.940;2023-11-21T00:53:17;48.47;;;23.60;;
57395;SDS011;43222;52.912;6.940;2023-11-21T00:55:43;50.78;;;21.85;;
57395;SDS011;43222;52.912;6.940;2023-11-21T00:58:09;49.88;;;23.52;;
57395;SDS011;43222;52.912;6.940;2023-11-21T01:00:35;49.28;;;23.30;;
57395;SDS011;43222;52.912;6.940;2023-11-21T01:03:04;50.15;;;22.77;;
57395;SDS011;43222;52.912;6.940;2023-11-21T01:05:30;52.05;;;22.67;;
57395;SDS011;43222;52.912;6.940;2023-11-21T01:07:56;49.47;;;23.73;;
57395;SDS011;43222;52.912;6.940;2023-11-21T01:10:22;48.33;;;22.70;;
57395;SDS011;43222;52.912;6.940;2023-11-21T01:12:58;48.63;;;23.40;;
57395;SDS011;43222;52.912;6.940;2023-11-21T01:15:24;57.55;;;24.05;;
57395;SDS011;43222;52.912;6.940;2023-11-21T01:17:51;42.88;;;21.20;;
57395;SDS011;43222;52.912;6.940;2023-11-21T01:20:17;62.13;;;25.10;;
57395;SDS011;43222;52.912;6.940;2023-11-21T01:22:43;50.63;;;22.20;;
57395;SDS011;43222;52.912;6.940;2023-11-21T01:25:09;59.67;;;24.08;;
57395;SDS011;43222;52.912;6.940;2023-11-21T01:27:36;50.78;;;21.52;;
57395;SDS011;43222;52.912;6.940;2023-11-21T01:30:02;53.13;;;22.05;;
57395;SDS011;43222;52.912;6.940;2023-11-21T01:32:29;49.75;;;24.55;;
57395;SDS011;43222;52.912;6.940;2023-11-21T01:34:55;52.50;;;22.23;;
57395;SDS011;43222;52.912;6.940;2023-11-21T01:37:21;49.60;;;22.40;;
57395;SDS011;43222;52.912;6.940;2023-11-21T01:39:48;51.72;;;24.58;;
57395;SDS011;43222;52.912;6.940;2023-11-21T01:42:14;47.88;;;23.42;;
57395;SDS011;43222;52.912;6.940;2023-11-21T01:44:40;54.55;;;24.27;;
57395;SDS011;43222;52.912;6.940;2023-11-21T01:47:06;52.40;;;23.15;;
57395;SDS011;43222;52.912;6.940;2023-11-21T01:49:32;57.97;;;24.27;;
57395;SDS011;43222;52.912;6.940;2023-11-21T01:51:58;49.25;;;23.75;;
57395;SDS011;43222;52.912;6.940;2023-11-21T01:54:25;52.22;;;22.77;;
57395;SDS011;43222;52.912;6.940;2023-11-21T01:56:51;45.58;;;22.38;;
57395;SDS011;43222;52.912;6.940;2023-11-21T01:59:18;53.90;;;24.58;;
57395;SDS011;43222;52.912;6.940;2023-11-21T02:01:46;45.60;;;21.60;;
57395;SDS011;43222;52.912;6.940;2023-11-21T02:04:13;51.70;;;23.80;;
57395;SDS011;43222;52.912;6.940;2023-11-21T02:06:39;46.85;;;23.00;;
57395;SDS011;43222;52.912;6.940;2023-11-21T02:09:05;46.60;;;22.55;;
57395;SDS011;43222;52.912;6.940;2023-11-21T02:11:31;45.55;;;22.38;;
57395;SDS011;43222;52.912;6.940;2023-11-21T02:13:59;55.33;;;24.55;;
57395;SDS011;43222;52.912;6.940;2023-11-21T02:16:26;51.45;;;23.45;;
57395;SDS011;43222;52.912;6.940;2023-11-21T02:18:52;52.67;;;23.38;;
57395;SDS011;43222;52.912;6.940;2023-11-21T02:21:19;51.13;;;23.75;;
57395;SDS011;43222;52.912;6.940;2023-11-21T02:23:45;52.08;;;23.25;;
57395;SDS011;43222;52.912;6.940;2023-11-21T02:26:12;49.58;;;23.98;;
57395;SDS011;43222;52.912;6.940;2023-11-21T02:28:39;51.45;;;23.98;;
57395;SDS011;43222;52.912;6.940;2023-11-21T02:31:05;49.70;;;24.08;;
57395;SDS011;43222;52.912;6.940;2023-11-21T02:33:32;48.85;;;23.55;;
57395;SDS011;43222;52.912;6.940;2023-11-21T02:36:02;49.00;;;23.33;;
57395;SDS011;43222;52.912;6.940;2023-11-21T02:38:28;48.05;;;23.70;;
57395;SDS011;43222;52.912;6.940;2023-11-21T02:40:54;50.95;;;24.00;;
57395;SDS011;43222;52.912;6.940;2023-11-21T02:43:20;55.67;;;25.08;;
57395;SDS011;43222;52.912;6.940;2023-11-21T02:45:46;50.83;;;24.58;;
57395;SDS011;43222;52.912;6.940;2023-11-21T02:48:12;49.97;;;23.55;;
57395;SDS011;43222;52.912;6.940;2023-11-21T02:50:38;53.45;;;24.17;;
57395;SDS011;43222;52.912;6.940;2023-11-21T02:53:04;50.30;;;24.65;;
57395;SDS011;43222;52.912;6.940;2023-11-21T02:55:31;53.95;;;25.58;;
57395;SDS011;43222;52.912;6.940;2023-11-21T02:57:59;55.72;;;25.08;;
57395;SDS011;43222;52.912;6.940;2023-11-21T03:00:25;49.05;;;24.42;;
57395;SDS011;43222;52.912;6.940;2023-11-21T03:02:51;51.40;;;25.38;;
57395;SDS011;43222;52.912;6.940;2023-11-21T03:05:18;56.45;;;25.77;;
57395;SDS011;43222;52.912;6.940;2023-11-21T03:07:44;59.45;;;25.83;;
57395;SDS011;43222;52.912;6.940;2023-11-21T03:10:10;53.60;;;24.83;;
57395;SDS011;43222;52.912;6.940;2023-11-21T03:12:39;48.30;;;24.23;;
57395;SDS011;43222;52.912;6.940;2023-11-21T03:15:06;53.42;;;25.33;;
57395;SDS011;43222;52.912;6.940;2023-11-21T03:17:32;55.25;;;25.08;;
57395;SDS011;43222;52.912;6.940;2023-11-21T03:20:01;54.15;;;25.27;;
57395;SDS011;43222;52.912;6.940;2023-11-21T03:22:28;49.17;;;25.05;;
57395;SDS011;43222;52.912;6.940;2023-11-21T03:24:54;54.25;;;25.65;;
57395;SDS011;43222;52.912;6.940;2023-11-21T03:27:21;50.92;;;24.38;;
57395;SDS011;43222;52.912;6.940;2023-11-21T03:29:47;53.58;;;25.80;;
57395;SDS011;43222;52.912;6.940;2023-11-21T03:32:14;55.90;;;26.00;;
57395;SDS011;43222;52.912;6.940;2023-11-21T03:34:56;49.42;;;24.73;;
57395;SDS011;43222;52.912;6.940;2023-11-21T03:37:23;48.85;;;24.13;;
57395;SDS011;43222;52.912;6.940;2023-11-21T03:39:49;50.42;;;24.70;;
57395;SDS011;43222;52.912;6.940;2023-11-21T03:42:16;55.03;;;25.55;;
57395;SDS011;43222;52.912;6.940;2023-11-21T03:44:42;53.72;;;25.63;;
57395;SDS011;43222;52.912;6.940;2023-11-21T03:47:08;53.75;;;25.10;;
57395;SDS011;43222;52.912;6.940;2023-11-21T03:49:34;52.00;;;24.85;;
57395;SDS011;43222;52.912;6.940;2023-11-21T03:52:00;50.53;;;25.30;;
57395;SDS011;43222;52.912;6.940;2023-11-21T03:54:27;59.05;;;26.65;;
57395;SDS011;43222;52.912;6.940;2023-11-21T03:56:53;56.95;;;26.52;;
57395;SDS011;43222;52.912;6.940;2023-11-21T03:59:19;59.17;;;25.92;;
57395;SDS011;43222;52.912;6.940;2023-11-21T04:01:45;50.83;;;25.20;;
57395;SDS011;43222;52.912;6.940;2023-11-21T04:04:11;58.95;;;27.90;;
57395;SDS011;43222;52.912;6.940;2023-11-21T04:06:37;58.60;;;26.35;;
57395;SDS011;43222;52.912;6.940;2023-11-21T04:09:03;51.15;;;24.83;;
57395;SDS011;43222;52.912;6.940;2023-11-21T04:11:29;50.28;;;25.85;;
57395;SDS011;43222;52.912;6.940;2023-11-21T04:13:56;58.63;;;26.17;;
57395;SDS011;43222;52.912;6.940;2023-11-21T04:16:22;54.10;;;26.73;;
57395;SDS011;43222;52.912;6.940;2023-11-21T04:18:48;52.80;;;25.55;;
57395;SDS011;43222;52.912;6.940;2023-11-21T04:21:14;56.25;;;26.45;;
57395;SDS011;43222;52.912;6.940;2023-11-21T04:23:40;57.95;;;26.65;;
57395;SDS011;43222;52.912;6.940;2023-11-21T04:26:06;59.78;;;26.20;;
57395;SDS011;43222;52.912;6.940;2023-11-21T04:28:32;63.65;;;27.83;;
57395;SDS011;43222;52.912;6.940;2023-11-21T04:30:59;63.10;;;27.10;;
57395;SDS011;43222;52.912;6.940;2023-11-21T04:33:25;66.80;;;28.73;;
57395;SDS011;43222;52.912;6.940;2023-11-21T04:35:51;66.90;;;28.00;;
57395;SDS011;43222;52.912;6.940;2023-11-21T04:38:17;67.38;;;27.92;;
57395;SDS011;43222;52.912;6.940;2023-11-21T04:40:44;64.32;;;28.48;;
57395;SDS011;43222;52.912;6.940;2023-11-21T04:43:10;60.38;;;28.00;;
57395;SDS011;43222;52.912;6.940;2023-11-21T04:45:37;69.18;;;29.73;;
57395;SDS011;43222;52.912;6.940;2023-11-21T04:48:03;64.20;;;29.38;;
57395;SDS011;43222;52.912;6.940;2023-11-21T04:50:30;65.72;;;29.65;;
57395;SDS011;43222;52.912;6.940;2023-11-21T04:52:56;64.82;;;28.30;;
57395;SDS011;43222;52.912;6.940;2023-11-21T04:55:22;87.30;;;29.90;;
57395;SDS011;43222;52.912;6.940;2023-11-21T04:57:48;67.40;;;28.52;;
57395;SDS011;43222;52.912;6.940;2023-11-21T05:00:14;83.57;;;31.10;;
57395;SDS011;43222;52.912;6.940;2023-11-21T05:02:41;61.53;;;29.10;;
57395;SDS011;43222;52.912;6.940;2023-11-21T05:05:07;75.80;;;30.67;;
57395;SDS011;43222;52.912;6.940;2023-11-21T05:07:35;64.57;;;28.92;;
57395;SDS011;43222;52.912;6.940;2023-11-21T05:10:01;63.83;;;28.80;;
57395;SDS011;43222;52.912;6.940;2023-11-21T05:12:33;58.30;;;27.42;;
57395;SDS011;43222;52.912;6.940;2023-11-21T05:15:03;82.57;;;29.67;;
57395;SDS011;43222;52.912;6.940;2023-11-21T05:17:33;90.75;;;31.08;;
57395;SDS011;43222;52.912;6.940;2023-11-21T05:20:00;77.60;;;31.20;;
57395;SDS011;43222;52.912;6.940;2023-11-21T05:22:28;62.08;;;28.80;;
57395;SDS011;43222;52.912;6.940;2023-11-21T05:24:54;84.35;;;30.83;;
57395;SDS011;43222;52.912;6.940;2023-11-21T05:27:20;68.85;;;28.95;;
57395;SDS011;43222;52.912;6.940;2023-11-21T05:29:46;68.47;;;28.83;;
57395;SDS011;43222;52.912;6.940;2023-11-21T05:32:12;70.18;;;28.50;;
57395;SDS011;43222;52.912;6.940;2023-11-21T05:34:39;73.75;;;30.98;;
57395;SDS011;43222;52.912;6.940;2023-11-21T05:37:05;83.65;;;29.85;;
57395;SDS011;43222;52.912;6.940;2023-11-21T05:39:31;86.32;;;33.13;;
57395;SDS011;43222;52.912;6.940;2023-11-21T05:41:57;77.57;;;31.35;;
57395;SDS011;43222;52.912;6.940;2023-11-21T05:44:25;80.90;;;31.38;;
57395;SDS011;43222;52.912;6.940;2023-11-21T05:46:51;95.18;;;33.40;;
57395;SDS011;43222;52.912;6.940;2023-11-21T05:49:17;71.70;;;30.77;;
57395;SDS011;43222;52.912;6.940;2023-11-21T05:51:46;80.30;;;32.20;;
57395;SDS011;43222;52.912;6.940;2023-11-21T05:54:13;89.30;;;32.88;;
57395;SDS011;43222;52.912;6.940;2023-11-21T05:56:39;91.18;;;33.58;;
57395;SDS011;43222;52.912;6.940;2023-11-21T05:59:05;88.32;;;33.63;;
57395;SDS011;43222;52.912;6.940;2023-11-21T06:01:31;79.00;;;32.20;;
57395;SDS011;43222;52.912;6.940;2023-11-21T06:03:58;74.55;;;32.95;;
57395;SDS011;43222;52.912;6.940;2023-11-21T06:06:24;78.80;;;31.95;;
57395;SDS011;43222;52.912;6.940;2023-11-21T06:08:51;63.58;;;31.00;;
57395;SDS011;43222;52.912;6.940;2023-11-21T06:11:17;67.55;;;31.55;;
57395;SDS011;43222;52.912;6.940;2023-11-21T06:13:43;78.97;;;33.63;;
57395;SDS011;43222;52.912;6.940;2023-11-21T06:16:10;77.80;;;31.70;;
57395;SDS011;43222;52.912;6.940;2023-11-21T06:18:38;71.18;;;32.45;;
57395;SDS011;43222;52.912;6.940;2023-11-21T06:21:05;78.90;;;32.80;;
57395;SDS011;43222;52.912;6.940;2023-11-21T06:23:31;90.32;;;33.88;;
57395;SDS011;43222;52.912;6.940;2023-11-21T06:25:57;84.63;;;32.05;;
57395;SDS011;43222;52.912;6.940;2023-11-21T06:28:23;98.63;;;34.70;;
57395;SDS011;43222;52.912;6.940;2023-11-21T06:30:49;89.03;;;34.20;;
57395;SDS011;43222;52.912;6.940;2023-11-21T06:33:15;71.85;;;29.83;;
57395;SDS011;43222;52.912;6.940;2023-11-21T06:35:41;69.82;;;30.05;;
57395;SDS011;43222;52.912;6.940;2023-11-21T06:38:07;66.90;;;28.85;;
57395;SDS011;43222;52.912;6.940;2023-11-21T06:40:34;62.08;;;27.00;;
57395;SDS011;43222;52.912;6.940;2023-11-21T06:43:00;57.95;;;24.38;;
57395;SDS011;43222;52.912;6.940;2023-11-21T06:45:26;58.88;;;24.98;;
57395;SDS011;43222;52.912;6.940;2023-11-21T06:47:52;57.00;;;25.80;;
57395;SDS011;43222;52.912;6.940;2023-11-21T06:50:18;54.78;;;25.98;;
57395;SDS011;43222;52.912;6.940;2023-11-21T06:52:45;63.30;;;30.17;;
57395;SDS011;43222;52.912;6.940;2023-11-21T06:55:11;59.72;;;28.35;;
57395;SDS011;43222;52.912;6.940;2023-11-21T06:57:37;58.05;;;26.17;;
57395;SDS011;43222;52.912;6.940;2023-11-21T07:00:03;58.25;;;25.95;;
57395;SDS011;43222;52.912;6.940;2023-11-21T07:02:30;64.05;;;26.38;;
57395;SDS011;43222;52.912;6.940;2023-11-21T07:04:56;56.72;;;26.02;;
57395;SDS011;43222;52.912;6.940;2023-11-21T07:07:22;55.25;;;23.92;;
57395;SDS011;43222;52.912;6.940;2023-11-21T07:09:48;53.22;;;23.73;;
57395;SDS011;43222;52.912;6.940;2023-11-21T07:12:14;59.35;;;25.30;;
57395;SDS011;43222;52.912;6.940;2023-11-21T07:14:40;55.67;;;25.40;;
57395;SDS011;43222;52.912;6.940;2023-11-21T07:17:09;60.92;;;24.92;;
57395;SDS011;43222;52.912;6.940;2023-11-21T07:19:37;65.72;;;25.27;;
57395;SDS011;43222;52.912;6.940;2023-11-21T07:22:03;64.22;;;25.48;;
57395;SDS011;43222;52.912;6.940;2023-11-21T07:24:31;62.75;;;25.67;;
57395;SDS011;43222;52.912;6.940;2023-11-21T07:26:57;58.38;;;24.42;;
57395;SDS011;43222;52.912;6.940;2023-11-21T07:29:24;57.30;;;23.17;;
57395;SDS011;43222;52.912;6.940;2023-11-21T07:31:54;52.60;;;22.90;;
57395;SDS011;43222;52.912;6.940;2023-11-21T07:34:21;51.35;;;21.33;;
57395;SDS011;43222;52.912;6.940;2023-11-21T07:36:47;44.63;;;19.73;;
57395;SDS011;43222;52.912;6.940;2023-11-21T07:39:13;51.83;;;21.27;;
57395;SDS011;43222;52.912;6.940;2023-11-21T07:41:41;38.75;;;18.05;;
57395;SDS011;43222;52.912;6.940;2023-11-21T07:44:13;40.47;;;18.85;;
57395;SDS011;43222;52.912;6.940;2023-11-21T07:46:39;44.20;;;19.23;;
57395;SDS011;43222;52.912;6.940;2023-11-21T07:49:05;40.38;;;17.77;;
57395;SDS011;43222;52.912;6.940;2023-11-21T07:51:31;48.78;;;20.35;;
57395;SDS011;43222;52.912;6.940;2023-11-21T07:53:57;44.65;;;21.60;;
57395;SDS011;43222;52.912;6.940;2023-11-21T07:56:23;50.95;;;22.40;;
57395;SDS011;43222;52.912;6.940;2023-11-21T07:58:49;45.65;;;20.73;;
57395;SDS011;43222;52.912;6.940;2023-11-21T08:01:15;48.00;;;20.17;;
57395;SDS011;43222;52.912;6.940;2023-11-21T08:03:42;49.35;;;21.67;;
57395;SDS011;43222;52.912;6.940;2023-11-21T08:06:09;51.33;;;22.25;;
57395;SDS011;43222;52.912;6.940;2023-11-21T08:08:35;53.50;;;22.73;;
57395;SDS011;43222;52.912;6.940;2023-11-21T08:11:01;68.90;;;26.83;;
57395;SDS011;43222;52.912;6.940;2023-11-21T08:13:29;64.35;;;26.23;;
57395;SDS011;43222;52.912;6.940;2023-11-21T08:15:56;77.97;;;29.23;;
57395;SDS011;43222;52.912;6.940;2023-11-21T08:18:27;69.95;;;27.20;;
57395;SDS011;43222;52.912;6.940;2023-11-21T08:20:54;72.30;;;26.88;;
57395;SDS011;43222;52.912;6.940;2023-11-21T08:23:20;79.50;;;30.92;;
57395;SDS011;43222;52.912;6.940;2023-11-21T08:25:50;78.28;;;28.88;;
57395;SDS011;43222;52.912;6.940;2023-11-21T08:28:16;75.43;;;28.42;;
57395;SDS011;43222;52.912;6.940;2023-11-21T08:30:42;76.35;;;30.42;;
57395;SDS011;43222;52.912;6.940;2023-11-21T08:33:09;74.80;;;30.15;;
57395;SDS011;43222;52.912;6.940;2023-11-21T08:35:36;65.07;;;31.20;;
57395;SDS011;43222;52.912;6.940;2023-11-21T08:38:02;60.17;;;28.70;;
57395;SDS011;43222;52.912;6.940;2023-11-21T08:40:28;54.08;;;29.48;;
57395;SDS011;43222;52.912;6.940;2023-11-21T08:42:55;55.47;;;28.83;;
57395;SDS011;43222;52.912;6.940;2023-11-21T08:45:21;57.05;;;28.85;;
57395;SDS011;43222;52.912;6.940;2023-11-21T08:47:47;57.40;;;31.52;;
57395;SDS011;43222;52.912;6.940;2023-11-21T08:50:14;52.00;;;28.52;;
57395;SDS011;43222;52.912;6.940;2023-11-21T08:52:40;57.70;;;29.98;;
57395;SDS011;43222;52.912;6.940;2023-11-21T08:55:07;60.95;;;31.00;;
57395;SDS011;43222;52.912;6.940;2023-11-21T08:57:34;62.03;;;30.25;;
57395;SDS011;43222;52.912;6.940;2023-11-21T09:00:01;57.58;;;29.73;;
57395;SDS011;43222;52.912;6.940;2023-11-21T09:02:27;61.95;;;31.65;;
57395;SDS011;43222;52.912;6.940;2023-11-21T09:04:53;58.22;;;31.48;;
57395;SDS011;43222;52.912;6.940;2023-11-21T09:07:19;57.55;;;29.90;;
57395;SDS011;43222;52.912;6.940;2023-11-21T09:09:48;62.08;;;33.38;;
57395;SDS011;43222;52.912;6.940;2023-11-21T09:12:15;58.75;;;31.08;;
57395;SDS011;43222;52.912;6.940;2023-11-21T09:14:42;55.97;;;30.85;;
57395;SDS011;43222;52.912;6.940;2023-11-21T09:17:09;62.90;;;32.25;;
57395;SDS011;43222;52.912;6.940;2023-11-21T09:19:39;58.72;;;31.90;;
57395;SDS011;43222;52.912;6.940;2023-11-21T09:22:05;58.17;;;31.45;;
57395;SDS011;43222;52.912;6.940;2023-11-21T09:24:32;57.40;;;28.70;;
57395;SDS011;43222;52.912;6.940;2023-11-21T09:26:58;45.63;;;26.52;;
57395;SDS011;43222;52.912;6.940;2023-11-21T09:29:25;48.05;;;27.73;;
57395;SDS011;43222;52.912;6.940;2023-11-21T09:31:51;54.15;;;28.95;;
57395;SDS011;43222;52.912;6.940;2023-11-21T09:34:19;48.55;;;26.88;;
57395;SDS011;43222;52.912;6.940;2023-11-21T09:36:46;39.47;;;24.58;;
57395;SDS011;43222;52.912;6.940;2023-11-21T09:39:12;39.00;;;25.50;;
57395;SDS011;43222;52.912;6.940;2023-11-21T09:41:52;42.05;;;25.42;;
57395;SDS011;43222;52.912;6.940;2023-11-21T09:44:29;36.53;;;23.30;;
57395;SDS011;43222;52.912;6.940;2023-11-21T09:46:59;28.35;;;19.38;;
57395;SDS011;43222;52.912;6.940;2023-11-21T09:49:25;27.05;;;19.75;;
57395;SDS011;43222;52.912;6.940;2023-11-21T09:51:53;23.92;;;17.58;;
57395;SDS011;43222;52.912;6.940;2023-11-21T09:54:22;25.00;;;16.77;;
57395;SDS011;43222;52.912;6.940;2023-11-21T09:56:48;25.25;;;18.15;;
57395;SDS011;43222;52.912;6.940;2023-11-21T09:59:15;24.63;;;17.63;;
57395;SDS011;43222;52.912;6.940;2023-11-21T10:01:41;26.48;;;18.20;;
57395;SDS011;43222;52.912;6.940;2023-11-21T10:04:08;22.58;;;17.40;;
57395;SDS011;43222;52.912;6.940;2023-11-21T10:06:38;22.27;;;17.13;;
57395;SDS011;43222;52.912;6.940;2023-11-21T10:09:06;21.25;;;15.20;;
57395;SDS011;43222;52.912;6.940;2023-11-21T10:11:36;22.13;;;16.48;;
57395;SDS011;43222;52.912;6.940;2023-11-21T10:14:03;19.38;;;13.50;;
57395;SDS011;43222;52.912;6.940;2023-11-21T10:16:30;17.35;;;13.30;;
57395;SDS011;43222;52.912;6.940;2023-11-21T10:18:57;19.33;;;14.40;;
57395;SDS011;43222;52.912;6.940;2023-11-21T10:21:24;17.27;;;13.15;;
57395;SDS011;43222;52.912;6.940;2023-11-21T10:23:51;17.23;;;12.98;;
57395;SDS011;43222;52.912;6.940;2023-11-21T10:26:18;17.83;;;13.38;;
57395;SDS011;43222;52.912;6.940;2023-11-21T10:28:55;17.90;;;14.60;;
57395;SDS011;43222;52.912;6.940;2023-11-21T10:31:22;16.70;;;13.02;;
57395;SDS011;43222;52.912;6.940;2023-11-21T10:33:49;13.10;;;9.70;;
57395;SDS011;43222;52.912;6.940;2023-11-21T10:36:27;15.93;;;11.57;;
57395;SDS011;43222;52.912;6.940;2023-11-21T10:38:53;14.27;;;10.82;;
57395;SDS011;43222;52.912;6.940;2023-11-21T10:41:20;12.57;;;8.43;;
57395;SDS011;43222;52.912;6.940;2023-11-21T10:43:46;14.57;;;10.73;;
57395;SDS011;43222;52.912;6.940;2023-11-21T10:46:13;15.48;;;10.20;;
57395;SDS011;43222;52.912;6.940;2023-11-21T10:48:43;12.57;;;9.23;;
57395;SDS011;43222;52.912;6.940;2023-11-21T10:51:09;12.45;;;9.57;;
57395;SDS011;43222;52.912;6.940;2023-11-21T10:53:42;13.38;;;9.25;;
57395;SDS011;43222;52.912;6.940;2023-11-21T10:56:08;13.98;;;10.27;;
57395;SDS011;43222;52.912;6.940;2023-11-21T10:58:42;14.85;;;10.57;;
57395;SDS011;43222;52.912;6.940;2023-11-21T11:01:08;13.73;;;9.38;;
57395;SDS011;43222;52.912;6.940;2023-11-21T11:03:39;14.50;;;10.87;;
57395;SDS011;43222;52.912;6.940;2023-11-21T11:06:05;14.40;;;10.15;;
57395;SDS011;43222;52.912;6.940;2023-11-21T11:08:39;14.43;;;9.90;;
57395;SDS011;43222;52.912;6.940;2023-11-21T11:11:06;14.32;;;9.40;;
57395;SDS011;43222;52.912;6.940;2023-11-21T11:13:32;12.27;;;8.88;;
57395;SDS011;43222;52.912;6.940;2023-11-21T11:15:59;15.80;;;10.63;;
57395;SDS011;43222;52.912;6.940;2023-11-21T11:18:27;15.82;;;10.38;;
57395;SDS011;43222;52.912;6.940;2023-11-21T11:20:54;15.23;;;9.85;;
57395;SDS011;43222;52.912;6.940;2023-11-21T11:28:29;13.07;;;9.95;;
57395;SDS011;43222;52.912;6.940;2023-11-21T11:33:53;14.80;;;9.70;;
57395;SDS011;43222;52.912;6.940;2023-11-21T11:38:46;14.95;;;10.23;;
57395;SDS011;43222;52.912;6.940;2023-11-21T11:41:24;15.25;;;10.43;;
57395;SDS011;43222;52.912;6.940;2023-11-21T11:43:51;10.77;;;8.75;;
57395;SDS011;43222;52.912;6.940;2023-11-21T11:46:18;12.13;;;8.88;;
57395;SDS011;43222;52.912;6.940;2023-11-21T11:48:46;12.07;;;8.60;;
57395;SDS011;43222;52.912;6.940;2023-11-21T11:51:14;13.30;;;9.93;;
57395;SDS011;43222;52.912;6.940;2023-11-21T11:53:42;13.98;;;9.80;;
57395;SDS011;43222;52.912;6.940;2023-11-21T11:58:40;12.98;;;9.20;;
57395;SDS011;43222;52.912;6.940;2023-11-21T12:01:07;12.85;;;9.48;;
57395;SDS011;43222;52.912;6.940;2023-11-21T12:03:33;11.98;;;9.25;;
57395;SDS011;43222;52.912;6.940;2023-11-21T12:06:00;11.68;;;8.70;;
57395;SDS011;43222;52.912;6.940;2023-11-21T12:08:26;12.30;;;8.98;;
57395;SDS011;43222;52.912;6.940;2023-11-21T12:13:23;11.57;;;8.20;;
57395;SDS011;43222;52.912;6.940;2023-11-21T12:15:49;12.52;;;8.48;;
57395;SDS011;43222;52.912;6.940;2023-11-21T12:18:15;11.52;;;8.05;;
57395;SDS011;43222;52.912;6.940;2023-11-21T12:20:41;11.30;;;7.03;;
57395;SDS011;43222;52.912;6.940;2023-11-21T12:23:11;11.30;;;8.25;;
57395;SDS011;43222;52.912;6.940;2023-11-21T12:25:40;11.65;;;7.78;;
57395;SDS011;43222;52.912;6.940;2023-11-21T12:28:07;12.25;;;8.35;;
57395;SDS011;43222;52.912;6.940;2023-11-21T12:30:33;10.90;;;7.88;;
57395;SDS011;43222;52.912;6.940;2023-11-21T12:33:01;13.65;;;9.30;;
57395;SDS011;43222;52.912;6.940;2023-11-21T12:35:27;10.82;;;8.05;;
57395;SDS011;43222;52.912;6.940;2023-11-21T12:37:55;13.07;;;8.95;;
57395;SDS011;43222;52.912;6.940;2023-11-21T12:40:24;11.30;;;8.43;;
57395;SDS011;43222;52.912;6.940;2023-11-21T12:42:55;12.05;;;8.80;;
57395;SDS011;43222;52.912;6.940;2023-11-21T12:45:23;12.55;;;9.18;;
57395;SDS011;43222;52.912;6.940;2023-11-21T12:47:59;13.18;;;9.73;;
57395;SDS011;43222;52.912;6.940;2023-11-21T12:50:27;15.50;;;9.55;;
57395;SDS011;43222;52.912;6.940;2023-11-21T12:52:54;13.35;;;9.80;;
57395;SDS011;43222;52.912;6.940;2023-11-21T12:55:23;13.25;;;9.57;;
57395;SDS011;43222;52.912;6.940;2023-11-21T12:57:54;13.60;;;9.38;;
57395;SDS011;43222;52.912;6.940;2023-11-21T13:00:28;12.88;;;9.52;;
57395;SDS011;43222;52.912;6.940;2023-11-21T13:02:55;12.85;;;8.48;;
57395;SDS011;43222;52.912;6.940;2023-11-21T13:05:28;12.77;;;9.20;;
57395;SDS011;43222;52.912;6.940;2023-11-21T13:07:55;13.13;;;9.30;;
57395;SDS011;43222;52.912;6.940;2023-11-21T13:10:26;13.27;;;10.35;;
57395;SDS011;43222;52.912;6.940;2023-11-21T13:12:55;12.98;;;9.25;;
57395;SDS011;43222;52.912;6.940;2023-11-21T13:15:23;14.35;;;10.45;;
57395;SDS011;43222;52.912;6.940;2023-11-21T13:17:49;15.20;;;9.18;;
57395;SDS011;43222;52.912;6.940;2023-11-21T13:20:16;14.38;;;8.52;;
57395;SDS011;43222;52.912;6.940;2023-11-21T13:22:52;12.65;;;9.07;;
57395;SDS011;43222;52.912;6.940;2023-11-21T13:25:29;12.45;;;8.60;;
57395;SDS011;43222;52.912;6.940;2023-11-21T13:27:56;14.95;;;9.57;;
57395;SDS011;43222;52.912;6.940;2023-11-21T13:30:24;13.02;;;9.20;;
57395;SDS011;43222;52.912;6.940;2023-11-21T13:32:58;14.45;;;10.60;;
57395;SDS011;43222;52.912;6.940;2023-11-21T13:35:30;15.40;;;9.02;;
57395;SDS011;43222;52.912;6.940;2023-11-21T13:38:20;15.63;;;9.30;;
57395;SDS011;43222;52.912;6.940;2023-11-21T13:40:48;13.45;;;9.52;;
57395;SDS011;43222;52.912;6.940;2023-11-21T13:43:17;15.73;;;8.82;;
57395;SDS011;43222;52.912;6.940;2023-11-21T13:45:45;12.65;;;8.65;;
57395;SDS011;43222;52.912;6.940;2023-11-21T13:48:12;13.27;;;9.05;;
57395;SDS011;43222;52.912;6.940;2023-11-21T13:50:41;13.40;;;9.13;;
57395;SDS011;43222;52.912;6.940;2023-11-21T13:53:22;13.23;;;9.18;;
57395;SDS011;43222;52.912;6.940;2023-11-21T13:55:49;13.30;;;9.15;;
57395;SDS011;43222;52.912;6.940;2023-11-21T13:58:16;13.50;;;8.90;;
57395;SDS011;43222;52.912;6.940;2023-11-21T14:00:49;13.63;;;8.35;;
57395;SDS011;43222;52.912;6.940;2023-11-21T14:03:25;15.63;;;9.60;;
57395;SDS011;43222;52.912;6.940;2023-11-21T14:06:03;12.20;;;8.88;;
57395;SDS011;43222;52.912;6.940;2023-11-21T14:08:39;11.75;;;8.20;;
57395;SDS011;43222;52.912;6.940;2023-11-21T14:11:05;12.10;;;9.10;;
57395;SDS011;43222;52.912;6.940;2023-11-21T14:13:31;13.90;;;9.70;;
57395;SDS011;43222;52.912;6.940;2023-11-21T14:15:58;13.18;;;9.02;;
57395;SDS011;43222;52.912;6.940;2023-11-21T14:18:26;13.98;;;9.10;;
57395;SDS011;43222;52.912;6.940;2023-11-21T14:20:56;12.90;;;9.45;;
57395;SDS011;43222;52.912;6.940;2023-11-21T14:23:22;12.70;;;8.68;;
57395;SDS011;43222;52.912;6.940;2023-11-21T14:25:48;12.20;;;9.05;;
57395;SDS011;43222;52.912;6.940;2023-11-21T14:28:15;13.60;;;8.90;;
57395;SDS011;43222;52.912;6.940;2023-11-21T14:30:42;13.20;;;7.53;;
57395;SDS011;43222;52.912;6.940;2023-11-21T14:33:08;11.25;;;7.72;;
57395;SDS011;43222;52.912;6.940;2023-11-21T14:35:36;11.75;;;7.68;;
57395;SDS011;43222;52.912;6.940;2023-11-21T14:38:02;12.32;;;7.82;;
57395;SDS011;43222;52.912;6.940;2023-11-21T14:40:33;10.48;;;6.93;;